Time;durP1;ratioP1;P1;durP2;ratioP2;P2;SDS_P1;SDS_P2;PMS_P1;PMS_P2;Temp;Humidity;BMP_temperature;BMP_pressure;BME280_temperature;BME280_humidity;BME280_pressure;Samples;Min_cycle;Max_cycle;Signal;HPM_P1;HPM_P2
2023/09/14 00:01:25;;;;;;;2.73;1.80;;;;;;;;;;4954577;28;20287;-86
2023/09/14 00:03:52;;;;;;;2.10;1.90;;;;;;;;;;4972871;28;20237;-86
2023/09/14 00:06:19;;;;;;;3.10;2.00;;;;;;;;;;4972464;28;20237;-86
2023/09/14 00:08:47;;;;;;;3.17;2.10;;;;;;;;;;4957359;28;20216;-86
2023/09/14 00:11:14;;;;;;;2.40;2.07;;;;;;;;;;4953228;28;20254;-86
2023/09/14 00:13:41;;;;;;;2.47;1.73;;;;;;;;;;4952351;29;20222;-86
2023/09/14 00:16:09;;;;;;;3.90;2.07;;;;;;;;;;4953125;28;20241;-86
2023/09/14 00:18:36;;;;;;;2.50;1.53;;;;;;;;;;4952927;29;20243;-85
2023/09/14 00:21:03;;;;;;;2.13;1.63;;;;;;;;;;4969228;28;20268;-86
2023/09/14 00:23:30;;;;;;;3.27;2.00;;;;;;;;;;4972243;28;20775;-85
2023/09/14 00:25:59;;;;;;;3.30;1.80;;;;;;;;;;4971941;28;20237;-86
2023/09/14 00:28:26;;;;;;;4.17;1.93;;;;;;;;;;4972541;28;20217;-86
2023/09/14 00:30:53;;;;;;;2.07;1.90;;;;;;;;;;4972032;28;20237;-86
2023/09/14 00:33:20;;;;;;;2.03;1.80;;;;;;;;;;4972399;28;20259;-86
2023/09/14 00:35:47;;;;;;;1.90;1.80;;;;;;;;;;4960131;28;20237;-86
2023/09/14 00:38:14;;;;;;;1.63;1.53;;;;;;;;;;4968175;28;20675;-85
2023/09/14 00:40:41;;;;;;;2.20;2.00;;;;;;;;;;4971713;28;20233;-86
2023/09/14 00:43:10;;;;;;;2.10;1.90;;;;;;;;;;4966683;28;20702;-86
2023/09/14 00:45:37;;;;;;;2.17;1.97;;;;;;;;;;4954995;28;20236;-86
2023/09/14 00:48:04;;;;;;;3.33;2.00;;;;;;;;;;4971771;28;20201;-85
2023/09/14 00:50:32;;;;;;;2.00;1.80;;;;;;;;;;4956090;28;20247;-86
2023/09/14 00:53:00;;;;;;;1.70;1.50;;;;;;;;;;4953275;28;20663;-85
2023/09/14 00:55:29;;;;;;;3.07;1.67;;;;;;;;;;4962263;28;20245;-85
2023/09/14 00:57:56;;;;;;;2.70;2.10;;;;;;;;;;4971639;28;20205;-85
2023/09/14 01:00:25;;;;;;;3.10;2.17;;;;;;;;;;4968757;28;20228;-86
2023/09/14 01:02:54;;;;;;;1.93;1.83;;;;;;;;;;4954685;28;20220;-85
2023/09/14 01:05:22;;;;;;;2.23;1.73;;;;;;;;;;4952106;28;20241;-85
2023/09/14 01:07:49;;;;;;;2.50;2.10;;;;;;;;;;4963244;28;20208;-85
2023/09/14 01:10:16;;;;;;;2.10;1.90;;;;;;;;;;4984786;28;20236;-85
2023/09/14 01:12:44;;;;;;;2.70;2.07;;;;;;;;;;4956194;28;20226;-85
2023/09/14 01:15:15;;;;;;;2.67;2.00;;;;;;;;;;4959678;28;20244;-86
2023/09/14 01:17:47;;;;;;;2.27;2.07;;;;;;;;;;4960251;28;20202;-85
2023/09/14 01:20:20;;;;;;;3.47;1.93;;;;;;;;;;4963801;28;20240;-85
2023/09/14 01:22:54;;;;;;;2.03;1.93;;;;;;;;;;4959315;28;20231;-86
2023/09/14 01:25:23;;;;;;;2.47;2.00;;;;;;;;;;4955924;28;20241;-85
2023/09/14 01:27:51;;;;;;;2.13;1.73;;;;;;;;;;4963507;28;20209;-85
2023/09/14 01:30:19;;;;;;;2.27;2.07;;;;;;;;;;4952911;28;20240;-84
2023/09/14 01:32:46;;;;;;;3.50;2.13;;;;;;;;;;5011230;22;20298;-90
2023/09/14 01:35:13;;;;;;;2.33;2.00;;;;;;;;;;5058255;28;20616;-90
2023/09/14 01:37:40;;;;;;;3.63;2.30;;;;;;;;;;5062004;28;20857;-89
2023/09/14 01:40:09;;;;;;;3.43;2.07;;;;;;;;;;5062467;28;20233;-90
2023/09/14 01:42:38;;;;;;;3.23;2.20;;;;;;;;;;5065788;28;20236;-90
2023/09/14 01:45:07;;;;;;;2.90;2.03;;;;;;;;;;5074840;28;20232;-90
2023/09/14 01:47:34;;;;;;;2.00;1.80;;;;;;;;;;5059539;28;20198;-90
2023/09/14 01:50:01;;;;;;;3.40;2.07;;;;;;;;;;5055113;28;20218;-90
2023/09/14 01:52:28;;;;;;;2.13;1.80;;;;;;;;;;5055212;28;20230;-90
2023/09/14 01:54:55;;;;;;;2.20;2.00;;;;;;;;;;5055339;28;20230;-90
2023/09/14 01:57:23;;;;;;;3.37;2.17;;;;;;;;;;5059669;28;20205;-89
2023/09/14 01:59:50;;;;;;;2.20;1.93;;;;;;;;;;5056425;28;20313;-90
2023/09/14 02:02:19;;;;;;;2.47;2.27;;;;;;;;;;5058053;28;20229;-90
2023/09/14 02:04:48;;;;;;;2.20;1.97;;;;;;;;;;5067182;28;20281;-89
2023/09/14 02:07:15;;;;;;;2.47;1.67;;;;;;;;;;5059206;28;20194;-90
2023/09/14 02:09:42;;;;;;;2.30;1.80;;;;;;;;;;5057651;28;20213;-89
2023/09/14 02:12:09;;;;;;;2.23;2.03;;;;;;;;;;5059096;28;20210;-90
2023/09/14 02:14:36;;;;;;;2.40;1.70;;;;;;;;;;5053807;28;20209;-89
2023/09/14 02:17:03;;;;;;;2.30;1.93;;;;;;;;;;5061649;28;20206;-89
2023/09/14 02:19:32;;;;;;;2.10;1.90;;;;;;;;;;5052939;28;20210;-89
2023/09/14 02:21:59;;;;;;;2.00;1.83;;;;;;;;;;5054491;28;20202;-90
2023/09/14 02:24:26;;;;;;;3.30;1.80;;;;;;;;;;5058484;28;20202;-89
2023/09/14 02:26:54;;;;;;;1.90;1.70;;;;;;;;;;5055085;28;20207;-89
2023/09/14 02:29:21;;;;;;;4.60;1.83;;;;;;;;;;5054214;28;20201;-90
2023/09/14 02:31:48;;;;;;;3.93;2.00;;;;;;;;;;5055096;28;20195;-89
2023/09/14 02:34:15;;;;;;;2.60;2.40;;;;;;;;;;5058630;28;20236;-88
2023/09/14 02:36:43;;;;;;;2.37;2.17;;;;;;;;;;5063717;28;20206;-89
2023/09/14 02:39:10;;;;;;;2.43;2.10;;;;;;;;;;5058784;28;20210;-90
2023/09/14 02:41:37;;;;;;;2.40;2.20;;;;;;;;;;5057693;28;20228;-90
2023/09/14 02:44:05;;;;;;;3.10;1.83;;;;;;;;;;5068346;28;20606;-90
2023/09/14 02:46:32;;;;;;;2.47;1.90;;;;;;;;;;5058881;28;20315;-90
2023/09/14 02:48:59;;;;;;;28.77;3.63;;;;;;;;;;5062261;28;20591;-90
2023/09/14 02:51:26;;;;;;;9.13;2.43;;;;;;;;;;5058152;28;20728;-90
2023/09/14 02:53:54;;;;;;;2.10;1.90;;;;;;;;;;5062435;28;20221;-89
2023/09/14 02:56:22;;;;;;;4.07;2.47;;;;;;;;;;5060593;28;20237;-89
2023/09/14 02:58:49;;;;;;;6.33;2.60;;;;;;;;;;5058509;28;20206;-90
2023/09/14 03:01:16;;;;;;;3.90;2.50;;;;;;;;;;5057774;28;20734;-89
2023/09/14 03:03:43;;;;;;;2.87;1.93;;;;;;;;;;5060041;28;20225;-89
2023/09/14 03:06:10;;;;;;;3.67;2.10;;;;;;;;;;5068597;28;20225;-90
2023/09/14 03:08:37;;;;;;;3.03;2.63;;;;;;;;;;5058526;28;20234;-89
2023/09/14 03:11:06;;;;;;;2.60;2.40;;;;;;;;;;5057666;28;20209;-90
2023/09/14 03:13:33;;;;;;;4.50;2.20;;;;;;;;;;5061591;28;20696;-89
2023/09/14 03:16:01;;;;;;;3.67;2.10;;;;;;;;;;5056547;28;20232;-89
2023/09/14 03:18:28;;;;;;;3.23;2.50;;;;;;;;;;5058792;28;20263;-89
2023/09/14 03:20:55;;;;;;;5.60;2.40;;;;;;;;;;5059508;28;20230;-89
2023/09/14 03:23:22;;;;;;;3.20;2.50;;;;;;;;;;5062162;28;20213;-90
2023/09/14 03:25:50;;;;;;;3.70;2.50;;;;;;;;;;5064401;28;20225;-89
2023/09/14 03:28:18;;;;;;;3.63;2.37;;;;;;;;;;5057774;28;20706;-90
2023/09/14 03:30:46;;;;;;;9.10;2.73;;;;;;;;;;5064102;28;20687;-89
2023/09/14 03:33:13;;;;;;;2.70;2.50;;;;;;;;;;5060813;28;20237;-89
2023/09/14 03:35:42;;;;;;;2.23;2.03;;;;;;;;;;5057941;28;20233;-90
2023/09/14 03:38:09;;;;;;;3.90;2.40;;;;;;;;;;5076414;28;20200;-90
2023/09/14 03:40:36;;;;;;;4.03;2.33;;;;;;;;;;5066917;28;20229;-90
2023/09/14 03:43:03;;;;;;;2.80;2.10;;;;;;;;;;5065287;28;20221;-90
2023/09/14 03:45:31;;;;;;;3.37;2.30;;;;;;;;;;5058727;28;20230;-90
2023/09/14 03:47:58;;;;;;;3.10;2.17;;;;;;;;;;5057834;28;20212;-90
2023/09/14 03:50:25;;;;;;;3.30;2.50;;;;;;;;;;5057727;28;20398;-89
2023/09/14 03:52:52;;;;;;;2.53;2.33;;;;;;;;;;5057774;28;20230;-89
2023/09/14 03:55:19;;;;;;;3.80;2.23;;;;;;;;;;5057549;28;20745;-90
2023/09/14 03:57:47;;;;;;;3.27;2.27;;;;;;;;;;5057249;28;20676;-90
2023/09/14 04:00:15;;;;;;;2.70;2.50;;;;;;;;;;5056884;28;20229;-89
2023/09/14 04:02:44;;;;;;;5.50;2.80;;;;;;;;;;5058779;28;20214;-90
2023/09/14 04:05:12;;;;;;;4.13;2.67;;;;;;;;;;5057075;28;20238;-89
2023/09/14 04:07:39;;;;;;;3.63;2.37;;;;;;;;;;5065251;28;20182;-90
2023/09/14 04:10:09;;;;;;;3.63;3.33;;;;;;;;;;5067075;28;20221;-91
2023/09/14 04:12:37;;;;;;;2.37;2.20;;;;;;;;;;5070986;28;20218;-91
2023/09/14 04:15:04;;;;;;;3.17;2.63;;;;;;;;;;5058768;28;20241;-91
2023/09/14 04:17:31;;;;;;;2.80;2.60;;;;;;;;;;5059653;28;20213;-92
2023/09/14 04:19:59;;;;;;;4.80;2.50;;;;;;;;;;5072360;28;20234;-92
2023/09/14 04:22:26;;;;;;;3.10;2.80;;;;;;;;;;5075665;28;20718;-92
2023/09/14 04:24:53;;;;;;;5.53;2.70;;;;;;;;;;5069998;28;20692;-92
2023/09/14 04:27:20;;;;;;;5.87;2.80;;;;;;;;;;5057705;28;20198;-91
2023/09/14 04:29:47;;;;;;;7.00;2.53;;;;;;;;;;5057625;28;20229;-91
2023/09/14 04:32:15;;;;;;;3.43;2.53;;;;;;;;;;5057667;28;20226;-91
2023/09/14 04:34:42;;;;;;;4.43;2.47;;;;;;;;;;5070709;28;20675;-85
2023/09/14 04:37:10;;;;;;;6.33;2.63;;;;;;;;;;5074915;28;20213;-85
2023/09/14 04:39:37;;;;;;;2.33;2.00;;;;;;;;;;5074717;28;20229;-85
2023/09/14 04:42:04;;;;;;;2.20;2.00;;;;;;;;;;5071466;28;20226;-85
2023/09/14 04:44:31;;;;;;;1.87;1.60;;;;;;;;;;5054517;28;20202;-87
2023/09/14 04:46:59;;;;;;;3.47;1.87;;;;;;;;;;5055318;28;20259;-86
2023/09/14 04:49:26;;;;;;;1.90;1.80;;;;;;;;;;5050269;28;20206;-86
2023/09/14 04:51:53;;;;;;;1.73;1.63;;;;;;;;;;5055219;28;20206;-86
2023/09/14 04:54:21;;;;;;;1.10;1.10;;;;;;;;;;5054674;28;20256;-85
2023/09/14 04:56:48;;;;;;;1.43;1.37;;;;;;;;;;5054784;28;20592;-85
2023/09/14 04:59:16;;;;;;;3.83;2.03;;;;;;;;;;5054102;28;20684;-85
2023/09/14 05:01:43;;;;;;;1.60;1.50;;;;;;;;;;5054874;28;20213;-85
2023/09/14 05:04:10;;;;;;;2.30;1.27;;;;;;;;;;5054649;28;20719;-84
2023/09/14 05:06:37;;;;;;;1.47;1.37;;;;;;;;;;5061040;28;20228;-85
2023/09/14 05:09:04;;;;;;;1.50;1.40;;;;;;;;;;5062268;28;20210;-84
2023/09/14 05:11:32;;;;;;;1.80;1.70;;;;;;;;;;5053814;28;20237;-84
2023/09/14 05:13:59;;;;;;;1.27;1.23;;;;;;;;;;5050050;28;20233;-82
2023/09/14 05:16:26;;;;;;;1.30;1.30;;;;;;;;;;5052646;28;20245;-83
2023/09/14 05:18:53;;;;;;;1.47;1.37;;;;;;;;;;5061379;28;20210;-81
2023/09/14 05:21:20;;;;;;;0.90;0.90;;;;;;;;;;5073439;28;20233;-82
2023/09/14 05:23:47;;;;;;;1.47;1.43;;;;;;;;;;5073589;28;20572;-82
2023/09/14 05:26:15;;;;;;;4.70;2.00;;;;;;;;;;5073470;28;20233;-82
2023/09/14 05:28:43;;;;;;;1.80;1.70;;;;;;;;;;5073847;28;20205;-82
2023/09/14 05:31:10;;;;;;;1.67;1.57;;;;;;;;;;5070254;28;20240;-83
2023/09/14 05:33:37;;;;;;;2.70;1.83;;;;;;;;;;5053633;28;20241;-83
2023/09/14 05:36:04;;;;;;;2.00;1.90;;;;;;;;;;5053360;28;20230;-83
2023/09/14 05:38:31;;;;;;;2.27;1.83;;;;;;;;;;5053654;28;20205;-82
2023/09/14 05:40:59;;;;;;;1.70;1.60;;;;;;;;;;5053615;28;20237;-82
2023/09/14 05:43:26;;;;;;;1.97;1.77;;;;;;;;;;5054073;28;20221;-82
2023/09/14 05:45:54;;;;;;;1.50;1.40;;;;;;;;;;5053156;28;20237;-82
2023/09/14 05:48:21;;;;;;;1.63;1.53;;;;;;;;;;5053622;28;20259;-82
2023/09/14 05:50:48;;;;;;;5.03;1.40;;;;;;;;;;5053369;28;20241;-82
2023/09/14 05:53:15;;;;;;;2.17;2.07;;;;;;;;;;5053894;28;20229;-82
2023/09/14 05:55:43;;;;;;;1.20;1.20;;;;;;;;;;5052996;28;20233;-82
2023/09/14 05:58:10;;;;;;;5.43;1.50;;;;;;;;;;5053290;28;20214;-82
2023/09/14 06:00:37;;;;;;;2.23;1.70;;;;;;;;;;5053236;28;20253;-82
2023/09/14 06:03:06;;;;;;;2.13;1.90;;;;;;;;;;5071150;28;20257;-81
2023/09/14 06:05:33;;;;;;;1.90;1.80;;;;;;;;;;5072948;28;20235;-82
2023/09/14 06:08:00;;;;;;;1.90;1.80;;;;;;;;;;5073800;28;20209;-85
2023/09/14 06:10:27;;;;;;;2.47;1.77;;;;;;;;;;5073649;28;20245;-84
2023/09/14 06:12:54;;;;;;;1.70;1.60;;;;;;;;;;5077071;28;20304;-83
2023/09/14 06:15:21;;;;;;;3.20;2.17;;;;;;;;;;5075973;28;20244;-84
2023/09/14 06:17:48;;;;;;;1.80;1.70;;;;;;;;;;5076671;28;20201;-84
2023/09/14 06:20:17;;;;;;;2.60;1.80;;;;;;;;;;5076792;28;20243;-83
2023/09/14 06:22:44;;;;;;;2.60;1.80;;;;;;;;;;5075559;28;20213;-84
2023/09/14 06:25:11;;;;;;;1.60;1.50;;;;;;;;;;5063141;28;20229;-84
2023/09/14 06:27:38;;;;;;;2.63;1.70;;;;;;;;;;5067625;28;20198;-84
2023/09/14 06:30:06;;;;;;;1.50;1.40;;;;;;;;;;5057114;28;20226;-84
2023/09/14 06:32:33;;;;;;;1.83;1.73;;;;;;;;;;5056986;28;20715;-84
2023/09/14 06:35:01;;;;;;;2.03;1.90;;;;;;;;;;5075805;28;20237;-84
2023/09/14 06:37:29;;;;;;;2.13;2.03;;;;;;;;;;5077137;28;20762;-84
2023/09/14 06:39:57;;;;;;;3.03;2.30;;;;;;;;;;5051350;28;20233;-84
2023/09/14 06:42:24;;;;;;;2.10;2.00;;;;;;;;;;5052451;28;20221;-84
2023/09/14 06:44:51;;;;;;;2.23;2.03;;;;;;;;;;5056147;28;20316;-84
2023/09/14 06:47:18;;;;;;;1.90;1.80;;;;;;;;;;5062101;28;20710;-84
2023/09/14 06:49:45;;;;;;;1.63;1.53;;;;;;;;;;5063712;28;20239;-84
2023/09/14 06:52:12;;;;;;;1.83;1.73;;;;;;;;;;5070394;28;20718;-84
2023/09/14 06:54:41;;;;;;;2.40;2.20;;;;;;;;;;5075225;28;20942;-84
2023/09/14 06:57:08;;;;;;;5.57;1.80;;;;;;;;;;5062643;28;20201;-84
2023/09/14 06:59:35;;;;;;;1.90;1.70;;;;;;;;;;5063753;28;20252;-85
2023/09/14 07:02:03;;;;;;;1.90;1.80;;;;;;;;;;5065651;28;20202;-84
2023/09/14 07:04:30;;;;;;;3.10;1.73;;;;;;;;;;5055848;28;20241;-85
2023/09/14 07:06:57;;;;;;;1.50;1.40;;;;;;;;;;5068252;28;20207;-84
2023/09/14 07:09:24;;;;;;;2.33;2.07;;;;;;;;;;5067580;28;20190;-85
2023/09/14 07:11:53;;;;;;;2.20;2.00;;;;;;;;;;5055547;28;20206;-84
2023/09/14 07:14:20;;;;;;;1.70;1.60;;;;;;;;;;5054565;28;20253;-84
2023/09/14 07:16:47;;;;;;;2.90;1.60;;;;;;;;;;5048341;28;20207;-83
2023/09/14 07:19:14;;;;;;;1.70;1.60;;;;;;;;;;5057887;28;20202;-84
2023/09/14 07:21:41;;;;;;;1.37;1.37;;;;;;;;;;5056409;28;20734;-84
2023/09/14 07:24:08;;;;;;;4.87;1.83;;;;;;;;;;5063651;28;20224;-84
2023/09/14 07:26:36;;;;;;;2.13;1.93;;;;;;;;;;5064736;28;20234;-84
2023/09/14 07:29:04;;;;;;;2.03;1.70;;;;;;;;;;5059449;28;20205;-84
2023/09/14 07:31:31;;;;;;;2.43;2.03;;;;;;;;;;5074552;28;20294;-84
2023/09/14 07:33:58;;;;;;;3.27;1.83;;;;;;;;;;5071596;28;20226;-85
2023/09/14 07:36:25;;;;;;;1.70;1.60;;;;;;;;;;5050191;28;20241;-83
2023/09/14 07:38:53;;;;;;;1.67;1.53;;;;;;;;;;5054439;28;20214;-83
2023/09/14 07:41:20;;;;;;;1.50;1.40;;;;;;;;;;5053564;28;20830;-83
2023/09/14 07:43:47;;;;;;;1.73;1.63;;;;;;;;;;5070898;28;20600;-84
2023/09/14 07:46:16;;;;;;;3.67;1.67;;;;;;;;;;5061122;28;20233;-84
2023/09/14 07:48:43;;;;;;;1.60;1.50;;;;;;;;;;5070734;28;20215;-84
2023/09/14 07:51:10;;;;;;;1.73;1.63;;;;;;;;;;5065407;28;20230;-84
2023/09/14 07:53:37;;;;;;;1.67;1.57;;;;;;;;;;5054664;28;20309;-84
2023/09/14 07:56:04;;;;;;;1.57;1.47;;;;;;;;;;5073693;28;20237;-83
2023/09/14 07:58:31;;;;;;;1.10;1.07;;;;;;;;;;5058099;28;20210;-84
2023/09/14 08:00:58;;;;;;;1.17;1.17;;;;;;;;;;5039275;28;20226;-83
2023/09/14 08:03:27;;;;;;;1.60;1.50;;;;;;;;;;5065153;28;20225;-85
2023/09/14 08:05:54;;;;;;;1.23;1.17;;;;;;;;;;5072512;28;20233;-82
2023/09/14 08:08:21;;;;;;;1.47;1.37;;;;;;;;;;5067131;28;20212;-85
2023/09/14 08:10:52;;;;;;;0.93;0.93;;;;;;;;;;5054112;28;20240;-86
2023/09/14 08:13:19;;;;;;;1.13;1.13;;;;;;;;;;5054645;28;20230;-86
2023/09/14 08:15:46;;;;;;;4.63;1.67;;;;;;;;;;5052519;28;20233;-85
2023/09/14 08:18:13;;;;;;;1.00;1.00;;;;;;;;;;5052518;28;20319;-84
2023/09/14 08:20:42;;;;;;;1.30;1.20;;;;;;;;;;5061500;28;20252;-85
2023/09/14 08:23:10;;;;;;;2.35;1.65;;;;;;;;;;5059202;28;20278;-86
2023/09/14 08:25:43;;;;;;;1.65;1.55;;;;;;;;;;5072857;28;20719;-85
2023/09/14 08:31:13;;;;;;;2.35;1.23;;;;;;;;;;5044029;28;20275;-84
2023/09/14 08:33:40;;;;;;;1.80;1.10;;;;;;;;;;5061123;28;20240;-83
2023/09/14 08:36:09;;;;;;;1.92;1.52;;;;;;;;;;5060593;28;20230;-84
2023/09/14 08:38:36;;;;;;;1.33;1.23;;;;;;;;;;5063401;28;20228;-86
2023/09/14 08:41:08;;;;;;;0.90;0.90;;;;;;;;;;5061300;28;20233;-85
2023/09/14 08:43:35;;;;;;;2.85;1.30;;;;;;;;;;5061941;28;20232;-85
2023/09/14 08:46:02;;;;;;;1.95;0.98;;;;;;;;;;5066869;28;20248;-85
2023/09/14 08:48:32;;;;;;;1.58;1.40;;;;;;;;;;5064862;28;20209;-86
2023/09/14 08:50:59;;;;;;;2.65;1.58;;;;;;;;;;5053266;28;20715;-85
2023/09/14 08:53:28;;;;;;;1.20;1.10;;;;;;;;;;5061900;28;20225;-85
2023/09/14 08:55:56;;;;;;;0.98;0.98;;;;;;;;;;5053592;28;20226;-86
2023/09/14 08:58:23;;;;;;;0.90;0.90;;;;;;;;;;5049587;28;20213;-85
2023/09/14 09:00:51;;;;;;;1.20;1.10;;;;;;;;;;5053864;28;20221;-86
2023/09/14 09:03:18;;;;;;;1.13;1.05;;;;;;;;;;5054004;28;20260;-85
2023/09/14 09:05:45;;;;;;;5.15;1.27;;;;;;;;;;5053654;28;20238;-86
2023/09/14 09:08:15;;;;;;;1.35;1.25;;;;;;;;;;5047010;28;20213;-86
2023/09/14 09:10:45;;;;;;;2.95;1.13;;;;;;;;;;5053481;28;20861;-86
2023/09/14 09:13:12;;;;;;;1.95;1.17;;;;;;;;;;5053568;28;20226;-85
2023/09/14 09:15:39;;;;;;;1.75;1.10;;;;;;;;;;5061680;28;20236;-85
2023/09/14 09:18:07;;;;;;;3.28;1.25;;;;;;;;;;5061882;28;20213;-85
2023/09/14 09:20:35;;;;;;;0.77;0.75;;;;;;;;;;5053190;28;20234;-85
2023/09/14 09:23:02;;;;;;;1.30;1.00;;;;;;;;;;5053807;28;20217;-86
2023/09/14 09:25:30;;;;;;;1.10;1.08;;;;;;;;;;5053200;28;20237;-85
2023/09/14 09:28:00;;;;;;;0.82;0.82;;;;;;;;;;5064387;28;20740;-85
2023/09/14 09:30:30;;;;;;;0.75;0.75;;;;;;;;;;5066800;28;20449;-85
2023/09/14 09:32:57;;;;;;;1.08;0.95;;;;;;;;;;5053566;28;20237;-85
2023/09/14 09:35:25;;;;;;;1.48;0.98;;;;;;;;;;5052128;28;20222;-86
2023/09/14 09:37:53;;;;;;;2.05;0.80;;;;;;;;;;5053536;28;20210;-85
2023/09/14 09:40:20;;;;;;;1.35;1.00;;;;;;;;;;5052682;28;20245;-85
2023/09/14 09:42:48;;;;;;;0.75;0.75;;;;;;;;;;5062499;28;20225;-85
2023/09/14 09:45:16;;;;;;;0.63;0.63;;;;;;;;;;5067824;28;20253;-85
2023/09/14 09:47:43;;;;;;;1.05;0.80;;;;;;;;;;5058602;28;20202;-85
2023/09/14 09:50:11;;;;;;;1.15;0.75;;;;;;;;;;5077781;28;20568;-85
2023/09/14 09:52:40;;;;;;;1.02;1.02;;;;;;;;;;5073939;28;20324;-85
2023/09/14 09:55:07;;;;;;;1.05;0.80;;;;;;;;;;5065559;28;20222;-85
2023/09/14 09:57:36;;;;;;;2.08;0.85;;;;;;;;;;5057220;28;20202;-85
2023/09/14 10:00:13;;;;;;;1.58;1.05;;;;;;;;;;5065461;28;20656;-85
2023/09/14 10:02:42;;;;;;;1.05;0.80;;;;;;;;;;5059775;28;20225;-84
2023/09/14 10:05:09;;;;;;;0.80;0.80;;;;;;;;;;5053767;28;20229;-85
2023/09/14 10:07:39;;;;;;;1.92;0.90;;;;;;;;;;5069319;28;20252;-85
2023/09/14 10:10:07;;;;;;;1.20;0.75;;;;;;;;;;5056663;28;20314;-85
2023/09/14 10:12:38;;;;;;;1.10;1.02;;;;;;;;;;5056700;28;20233;-85
2023/09/14 10:15:06;;;;;;;0.80;0.80;;;;;;;;;;5056860;28;20229;-86
2023/09/14 10:17:33;;;;;;;1.13;0.98;;;;;;;;;;5063871;28;20233;-85
2023/09/14 10:20:05;;;;;;;0.88;0.88;;;;;;;;;;5057561;28;20317;-85
2023/09/14 10:22:33;;;;;;;1.75;0.82;;;;;;;;;;5056503;28;20711;-85
2023/09/14 10:25:00;;;;;;;2.33;1.00;;;;;;;;;;5058797;28;20256;-85
2023/09/14 10:27:28;;;;;;;0.85;0.68;;;;;;;;;;5062538;28;20209;-86
2023/09/14 10:29:56;;;;;;;0.75;0.65;;;;;;;;;;5065523;28;20253;-85
2023/09/14 10:32:23;;;;;;;0.75;0.75;;;;;;;;;;5062832;28;20723;-86
2023/09/14 10:34:51;;;;;;;1.15;1.02;;;;;;;;;;5075866;28;20667;-85
2023/09/14 10:37:20;;;;;;;0.88;0.70;;;;;;;;;;5057752;28;20202;-85
2023/09/14 10:39:47;;;;;;;1.48;0.90;;;;;;;;;;5073628;28;20229;-86
2023/09/14 10:42:14;;;;;;;0.70;0.70;;;;;;;;;;5077182;28;20233;-85
2023/09/14 10:44:42;;;;;;;0.63;0.63;;;;;;;;;;5059673;28;20240;-85
2023/09/14 10:47:09;;;;;;;1.40;1.05;;;;;;;;;;5075885;28;20205;-85
2023/09/14 10:49:38;;;;;;;3.03;0.82;;;;;;;;;;5076111;28;20613;-86
2023/09/14 10:52:06;;;;;;;1.02;0.90;;;;;;;;;;5075653;28;20202;-84
2023/09/14 10:54:35;;;;;;;0.77;0.70;;;;;;;;;;5074524;28;20210;-84
2023/09/14 10:57:04;;;;;;;0.63;0.63;;;;;;;;;;5074433;28;20217;-85
2023/09/14 10:59:47;;;;;;;0.75;0.65;;;;;;;;;;5060345;28;20205;-85
2023/09/14 11:02:39;;;;;;;0.60;0.60;;;;;;;;;;5055592;28;20222;-85
2023/09/14 11:05:16;;;;;;;0.90;0.77;;;;;;;;;;5067469;28;20221;-85
2023/09/14 11:07:44;;;;;;;0.80;0.73;;;;;;;;;;5059544;28;20198;-85
2023/09/14 11:10:16;;;;;;;0.70;0.70;;;;;;;;;;5071576;28;20222;-85
2023/09/14 11:12:44;;;;;;;1.05;0.95;;;;;;;;;;5064235;28;20267;-85
2023/09/14 11:15:14;;;;;;;0.82;0.73;;;;;;;;;;5075821;28;20306;-86
2023/09/14 11:17:44;;;;;;;0.55;0.40;;;;;;;;;;5074643;28;20611;-84
2023/09/14 11:20:30;;;;;;;0.73;0.73;;;;;;;;;;5049976;28;20232;-85
2023/09/14 11:23:00;;;;;;;0.70;0.70;;;;;;;;;;5075460;28;20229;-85
2023/09/14 11:25:30;;;;;;;2.00;0.98;;;;;;;;;;5062953;28;20303;-85
2023/09/14 11:27:57;;;;;;;1.10;1.00;;;;;;;;;;5063698;28;20217;-85
2023/09/14 11:30:27;;;;;;;0.93;0.80;;;;;;;;;;5054182;28;20230;-85
2023/09/14 11:32:55;;;;;;;0.60;0.60;;;;;;;;;;5054788;28;20236;-85
2023/09/14 11:35:33;;;;;;;1.23;1.08;;;;;;;;;;5054296;28;20233;-85
2023/09/14 11:38:01;;;;;;;0.88;0.88;;;;;;;;;;5054996;28;20201;-85
2023/09/14 11:40:33;;;;;;;1.42;0.60;;;;;;;;;;5054723;28;20692;-86
2023/09/14 11:43:20;;;;;;;0.57;0.35;;;;;;;;;;5057773;28;20226;-86
2023/09/14 11:45:47;;;;;;;0.98;0.93;;;;;;;;;;5074034;28;20217;-86
2023/09/14 11:48:15;;;;;;;2.47;1.17;;;;;;;;;;5062588;28;20217;-86
2023/09/14 11:50:42;;;;;;;0.68;0.50;;;;;;;;;;5063126;28;20233;-86
2023/09/14 11:53:10;;;;;;;1.25;0.68;;;;;;;;;;5058834;28;20224;-86
2023/09/14 11:55:39;;;;;;;0.57;0.57;;;;;;;;;;5060050;28;20280;-86
2023/09/14 11:58:06;;;;;;;0.70;0.70;;;;;;;;;;5055157;28;20217;-86
2023/09/14 12:00:38;;;;;;;0.50;0.40;;;;;;;;;;5055121;28;20291;-86
2023/09/14 12:03:05;;;;;;;0.98;0.63;;;;;;;;;;5074505;28;20229;-86
2023/09/14 12:05:32;;;;;;;1.90;1.15;;;;;;;;;;5068624;28;20230;-85
2023/09/14 12:07:59;;;;;;;0.93;0.63;;;;;;;;;;5057166;28;20202;-85
2023/09/14 12:10:26;;;;;;;0.98;0.68;;;;;;;;;;5074070;28;20233;-85
2023/09/14 12:12:55;;;;;;;0.98;0.60;;;;;;;;;;5066284;28;20230;-86
2023/09/14 12:15:22;;;;;;;0.30;0.30;;;;;;;;;;5056604;28;20290;-85
2023/09/14 12:17:54;;;;;;;0.70;0.70;;;;;;;;;;5059203;28;20652;-86
2023/09/14 12:20:21;;;;;;;0.60;0.60;;;;;;;;;;5054775;28;20230;-86
2023/09/14 12:22:49;;;;;;;0.57;0.57;;;;;;;;;;5063166;28;20222;-85
2023/09/14 12:25:16;;;;;;;0.60;0.60;;;;;;;;;;5058581;28;20683;-86
2023/09/14 12:27:43;;;;;;;0.57;0.50;;;;;;;;;;5066343;28;20217;-85
2023/09/14 12:30:13;;;;;;;0.57;0.57;;;;;;;;;;5055153;28;20260;-86
2023/09/14 12:32:40;;;;;;;1.00;0.60;;;;;;;;;;5054929;28;20599;-86
2023/09/14 12:35:08;;;;;;;0.80;0.80;;;;;;;;;;5054414;28;20236;-85
2023/09/14 12:37:35;;;;;;;0.68;0.55;;;;;;;;;;5069087;28;20205;-85
2023/09/14 12:40:06;;;;;;;0.60;0.60;;;;;;;;;;5064118;28;20217;-86
2023/09/14 12:42:34;;;;;;;0.50;0.50;;;;;;;;;;5055592;28;20236;-85
2023/09/14 12:45:02;;;;;;;0.70;0.70;;;;;;;;;;5065537;28;20325;-85
2023/09/14 12:47:31;;;;;;;1.20;0.55;;;;;;;;;;5067713;28;20622;-86
2023/09/14 12:50:00;;;;;;;1.35;0.90;;;;;;;;;;5087283;28;20213;-84
2023/09/14 12:52:27;;;;;;;0.82;0.70;;;;;;;;;;5069000;28;20226;-84
2023/09/14 12:54:54;;;;;;;0.70;0.50;;;;;;;;;;5053016;28;20283;-85
2023/09/14 12:57:22;;;;;;;0.75;0.75;;;;;;;;;;5053162;28;20226;-84
2023/09/14 13:00:02;;;;;;;1.13;0.75;;;;;;;;;;5062168;28;20602;-84
2023/09/14 13:02:35;;;;;;;0.60;0.60;;;;;;;;;;5046796;28;20225;-79
2023/09/14 13:05:02;;;;;;;1.80;0.80;;;;;;;;;;5050988;28;20230;-78
2023/09/14 13:07:30;;;;;;;0.85;0.65;;;;;;;;;;5064457;28;20204;-78
2023/09/14 13:10:10;;;;;;;0.57;0.57;;;;;;;;;;5060737;28;20742;-82
2023/09/14 13:12:37;;;;;;;0.70;0.70;;;;;;;;;;5059403;28;20225;-82
2023/09/14 13:15:10;;;;;;;0.90;0.90;;;;;;;;;;5070965;28;20248;-83
2023/09/14 13:17:39;;;;;;;1.27;0.40;;;;;;;;;;5053300;28;20218;-83
2023/09/14 13:20:09;;;;;;;1.13;0.60;;;;;;;;;;5052104;28;20707;-84
2023/09/14 13:22:37;;;;;;;0.88;0.52;;;;;;;;;;5049473;28;20607;-84
2023/09/14 13:25:04;;;;;;;2.35;0.70;;;;;;;;;;5052638;28;20605;-84
2023/09/14 13:27:34;;;;;;;0.95;0.82;;;;;;;;;;5061105;28;20212;-84
2023/09/14 13:30:01;;;;;;;0.60;0.60;;;;;;;;;;5052789;28;20800;-84
2023/09/14 13:32:29;;;;;;;0.80;0.60;;;;;;;;;;5053354;28;20736;-84
2023/09/14 13:34:58;;;;;;;0.73;0.73;;;;;;;;;;5077250;22;20225;-86
2023/09/14 13:37:25;;;;;;;1.30;0.82;;;;;;;;;;5083336;28;20247;-86
2023/09/14 13:39:52;;;;;;;0.70;0.63;;;;;;;;;;5091276;28;20602;-86
2023/09/14 13:42:19;;;;;;;0.85;0.85;;;;;;;;;;5071703;28;20206;-86
2023/09/14 13:44:46;;;;;;;0.57;0.40;;;;;;;;;;5079264;28;20637;-86
2023/09/14 13:47:13;;;;;;;1.08;0.85;;;;;;;;;;5082119;28;20693;-86
2023/09/14 13:49:40;;;;;;;0.50;0.50;;;;;;;;;;5084455;28;20232;-86
2023/09/14 13:52:09;;;;;;;0.70;0.70;;;;;;;;;;5067443;28;20316;-86
2023/09/14 13:54:36;;;;;;;0.98;0.50;;;;;;;;;;5071099;28;20600;-86
2023/09/14 13:57:03;;;;;;;2.25;0.50;;;;;;;;;;5089679;28;20228;-86
2023/09/14 13:59:31;;;;;;;1.48;0.60;;;;;;;;;;5083471;28;20205;-87
2023/09/14 14:01:58;;;;;;;0.80;0.80;;;;;;;;;;5074613;28;20197;-87
2023/09/14 14:04:25;;;;;;;0.50;0.50;;;;;;;;;;5082652;28;20207;-86
2023/09/14 14:06:53;;;;;;;0.95;0.47;;;;;;;;;;5091108;28;20599;-87
2023/09/14 14:09:21;;;;;;;0.63;0.63;;;;;;;;;;5071019;28;20205;-86
2023/09/14 14:11:48;;;;;;;0.73;0.60;;;;;;;;;;5080927;28;20234;-87
2023/09/14 14:14:15;;;;;;;0.40;0.40;;;;;;;;;;5081822;28;20208;-87
2023/09/14 14:16:42;;;;;;;0.68;0.68;;;;;;;;;;5075123;28;20241;-87
2023/09/14 14:19:11;;;;;;;2.55;0.80;;;;;;;;;;5073852;28;20209;-87
2023/09/14 14:21:40;;;;;;;0.43;0.43;;;;;;;;;;5078571;28;20232;-88
2023/09/14 14:24:07;;;;;;;0.73;0.70;;;;;;;;;;5073874;28;20210;-87
2023/09/14 14:26:35;;;;;;;0.45;0.45;;;;;;;;;;5064407;28;20252;-88
2023/09/14 14:29:02;;;;;;;0.50;0.50;;;;;;;;;;5069562;28;20201;-89
2023/09/14 14:31:30;;;;;;;0.70;0.70;;;;;;;;;;5086061;28;20234;-88
2023/09/14 14:33:57;;;;;;;0.70;0.50;;;;;;;;;;5075335;28;20206;-87
2023/09/14 14:36:24;;;;;;;0.52;0.52;;;;;;;;;;5090217;28;20225;-86
2023/09/14 14:38:51;;;;;;;0.73;0.73;;;;;;;;;;5074880;28;20194;-86
2023/09/14 14:41:18;;;;;;;0.57;0.57;;;;;;;;;;5075131;28;20645;-87
2023/09/14 14:43:46;;;;;;;1.27;0.70;;;;;;;;;;5075347;28;20561;-86
2023/09/14 14:46:14;;;;;;;0.70;0.63;;;;;;;;;;5083160;28;20714;-86
2023/09/14 14:48:42;;;;;;;0.88;0.82;;;;;;;;;;5083215;28;20205;-86
2023/09/14 14:51:10;;;;;;;1.70;1.10;;;;;;;;;;5075189;28;20237;-86